Terminal Aerodrome Forecast
Issued by NWS

Home | Current Version | Previous Version | Graphics & Text | Print | Product List | Glossary On
Versions: 1 2 3 4 5 6 7 8 9 10 11 12 13 14 15 16 17 18 19 20 21 22 23 24
000
FTUS43 KGRB 291428 AAB
TAFAUW
TAF AMD
KAUW 291428Z 2914/3012 VRB03KT P6SM SCT015 SCT050
      TEMPO 2914/2917 BKN015 BKN050
     FM291800 28006KT P6SM VCSH BKN035 BKN070
      TEMPO 2923/3003 3SM TSRA BR BKN025CB
     FM300800 32005KT 4SM BR VCSH BKN012 BKN035=

USA.gov is the U.S. government's official web portal to all federal, state and local government web resources and services.